createdAt,value
2023-04-28T00:02:35.419Z,100343.94
2023-04-28T00:06:37.220Z,100336.28
2023-04-28T00:10:38.882Z,100325.13
2023-04-28T00:14:40.861Z,100321.72
2023-04-28T00:18:42.570Z,100324.25
2023-04-28T00:22:44.218Z,100334.50
2023-04-28T00:26:45.905Z,100336.69
2023-04-28T00:30:47.610Z,100328.59
2023-04-28T00:34:49.245Z,100314.78
2023-04-28T00:38:50.888Z,100306.34
2023-04-28T00:42:52.505Z,100294.38
2023-04-28T00:46:54.286Z,100293.56
2023-04-28T00:50:56.032Z,100285.84
2023-04-28T00:54:57.641Z,100285.03
2023-04-28T00:58:59.339Z,100279.88
2023-04-28T01:03:01.299Z,100280.78
2023-04-28T01:07:06.958Z,100266.16
2023-04-28T01:11:10.500Z,100257.66
2023-04-28T01:15:30.998Z,100260.19
2023-04-28T01:19:32.804Z,100241.09
2023-04-28T01:23:34.549Z,100240.19
2023-04-28T01:27:36.153Z,100255.28
2023-04-28T01:31:37.863Z,100261.81
2023-04-28T01:35:39.566Z,100267.06
2023-04-28T01:39:41.218Z,100258.72
2023-04-28T01:43:43.825Z,100255.38
2023-04-28T01:47:45.397Z,100253.69
2023-04-28T01:51:47.851Z,100245.13
2023-04-28T01:55:49.422Z,100258.09
2023-04-28T01:59:53.504Z,100258.81
2023-04-28T02:03:55.823Z,100261.00
2023-04-28T02:07:58.499Z,100267.75
2023-04-28T02:12:00.289Z,100264.31
2023-04-28T02:16:02.589Z,100250.66
2023-04-28T02:20:05.034Z,100249.97
2023-04-28T02:24:08.141Z,100253.47
2023-04-28T02:28:09.688Z,100249.22
2023-04-28T02:32:11.738Z,100255.28
2023-04-28T02:36:13.324Z,100262.88
2023-04-28T02:40:15.172Z,100258.31
2023-04-28T02:44:16.887Z,100248.78
2023-04-28T02:48:18.931Z,100254.03
2023-04-28T02:52:20.475Z,100242.06
2023-04-28T02:56:22.033Z,100229.31
2023-04-28T03:00:23.744Z,100229.38
2023-04-28T03:04:26.435Z,100212.22
2023-04-28T03:08:28.181Z,100229.38
2023-04-28T03:12:30.602Z,100228.56
2023-04-28T03:16:32.244Z,100221.66
2023-04-28T03:20:33.950Z,100213.94
2023-04-28T03:24:35.769Z,100201.81
2023-04-28T03:28:37.403Z,100191.31
2023-04-28T03:32:39.018Z,100182.56
2023-04-28T03:36:42.005Z,100177.22
2023-04-28T03:40:51.832Z,100188.41
2023-04-28T03:45:12.478Z,100185.72
2023-04-28T03:49:14.320Z,100183.16
2023-04-28T03:53:17.277Z,100204.63
2023-04-28T03:57:18.964Z,100214.91
2023-04-28T04:01:20.654Z,100214.13
2023-04-28T04:05:23.472Z,100197.84
2023-04-28T04:09:25.152Z,100194.28
2023-04-28T04:13:26.678Z,100199.53
2023-04-28T04:17:28.571Z,100194.47
2023-04-28T04:21:31.764Z,100182.50
2023-04-28T04:25:33.500Z,100185.88
2023-04-28T04:29:36.526Z,100167.09
2023-04-28T04:33:43.617Z,100159.34
2023-04-28T04:37:46.148Z,100174.63
2023-04-28T04:41:47.794Z,100176.28
2023-04-28T04:46:22.738Z,100183.88
2023-04-28T04:50:24.554Z,100177.09
2023-04-28T04:54:26.215Z,100175.38
2023-04-28T04:58:28.115Z,100176.13
2023-04-28T05:02:29.924Z,100169.31
2023-04-28T05:06:32.162Z,100170.09
2023-04-28T05:10:34.124Z,100182.06
2023-04-28T05:14:37.452Z,100175.16
2023-04-28T05:18:39.090Z,100178.56
2023-04-28T05:22:40.726Z,100174.34
2023-04-28T05:26:42.677Z,100173.56
2023-04-28T05:30:45.547Z,100187.31
2023-04-28T05:34:48.090Z,100183.03
2023-04-28T05:38:49.813Z,100187.25
2023-04-28T05:42:51.493Z,100181.19
2023-04-28T05:46:53.445Z,100175.31
2023-04-28T05:51:00.047Z,100170.06
2023-04-28T05:55:01.950Z,100161.38
2023-04-28T05:59:04.682Z,100163.25
2023-04-28T06:03:08.979Z,100163.47
2023-04-28T06:07:11.107Z,100182.47
2023-04-28T06:11:13.839Z,100174.63
2023-04-28T06:15:16.463Z,100191.78
2023-04-28T06:19:21.212Z,100194.34
2023-04-28T06:23:22.823Z,100204.63
2023-04-28T06:27:25.915Z,100206.41
2023-04-28T06:31:27.526Z,100197.66
2023-04-28T06:35:29.314Z,100191.56
2023-04-28T06:39:30.882Z,100174.28
2023-04-28T06:43:33.469Z,100177.72
2023-04-28T06:47:43.207Z,100184.69
2023-04-28T06:51:45.508Z,100186.47
2023-04-28T06:55:47.107Z,100181.22
2023-04-28T06:59:48.810Z,100168.34
2023-04-28T07:03:50.858Z,100176.06
2023-04-28T07:07:52.676Z,100177.78
2023-04-28T07:11:54.267Z,100193.38
2023-04-28T07:15:56.141Z,100184.13
2023-04-28T07:19:57.727Z,100180.97
2023-04-28T07:23:59.280Z,100171.84
2023-04-28T07:28:04.284Z,100184.59
2023-04-28T07:32:10.982Z,100189.22
2023-04-28T07:36:14.714Z,100165.41
2023-04-28T07:40:21.508Z,100167.31
2023-04-28T07:44:23.284Z,100154.97
2023-04-28T07:48:24.906Z,100159.94
2023-04-28T07:52:28.657Z,100177.06
2023-04-28T07:56:30.587Z,100170.06
2023-04-28T08:00:32.530Z,100160.53
2023-04-28T08:04:35.072Z,100156.22
2023-04-28T08:08:37.095Z,100163.16
2023-04-28T08:12:40.751Z,100146.88
2023-04-28T08:16:42.632Z,100152.94
2023-04-28T08:20:44.288Z,100135.09
2023-04-28T08:24:46.213Z,100138.69
2023-04-28T08:28:47.828Z,100135.66
2023-04-28T08:32:49.369Z,100164.16
2023-04-28T08:36:51.895Z,100153.84
2023-04-28T08:40:53.460Z,100158.13
2023-04-28T08:44:59.554Z,100165.84
2023-04-28T08:49:02.229Z,100161.88
2023-04-28T08:53:04.392Z,100176.16
2023-04-28T08:57:09.176Z,100160.19
2023-04-28T09:01:10.801Z,100168.97
2023-04-28T09:05:14.077Z,100167.47
2023-04-28T09:09:27.390Z,100163.28
2023-04-28T09:13:29.000Z,100159.81
2023-04-28T09:17:30.569Z,100170.19
2023-04-28T09:21:32.445Z,100171.09
2023-04-28T09:25:34.133Z,100166.00
2023-04-28T09:29:35.698Z,100155.03
2023-04-28T09:33:37.284Z,100160.34
2023-04-28T09:37:38.860Z,100161.38
2023-04-28T09:41:41.838Z,100149.31
2023-04-28T09:45:45.856Z,100148.56
2023-04-28T09:49:57.795Z,100151.34
2023-04-28T09:54:00.533Z,100147.09
2023-04-28T09:58:06.858Z,100156.47
2023-04-28T10:02:28.857Z,100158.91
2023-04-28T10:06:30.806Z,100151.06
2023-04-28T10:10:33.350Z,100156.09
2023-04-28T10:14:36.785Z,100162.84
2023-04-28T10:18:39.086Z,100163.59
2023-04-28T10:22:51.822Z,100167.00
2023-04-28T10:27:05.725Z,100156.63
2023-04-28T10:31:17.669Z,100170.31
2023-04-28T10:35:25.476Z,100169.47
2023-04-28T10:39:27.069Z,100157.56
2023-04-28T10:43:40.043Z,100153.28
2023-04-28T10:48:04.260Z,100146.50
2023-04-28T10:52:41.006Z,100145.81
2023-04-28T10:57:15.266Z,100135.50
2023-04-28T11:01:24.927Z,100137.47
2023-04-28T11:05:28.729Z,100126.47
2023-04-28T11:09:33.273Z,100131.75
2023-04-28T11:13:35.009Z,100139.53
2023-04-28T11:17:47.778Z,100135.16
2023-04-28T11:21:50.331Z,100130.72
2023-04-28T11:25:59.123Z,100133.25
2023-04-28T11:30:01.596Z,100140.09
2023-04-28T11:34:08.244Z,100142.66
2023-04-28T11:38:09.764Z,100144.19
2023-04-28T11:42:11.515Z,100134.66
2023-04-28T11:46:25.986Z,100135.44
2023-04-28T11:50:37.391Z,100126.06
2023-04-28T11:54:39.389Z,100120.09
2023-04-28T11:58:40.910Z,100124.50
2023-04-28T12:02:42.908Z,100124.50
2023-04-28T12:06:44.764Z,100129.75
2023-04-28T12:11:18.341Z,100128.97
2023-04-28T12:15:22.782Z,100130.88
2023-04-28T12:19:24.726Z,100131.84
2023-04-28T12:23:33.748Z,100133.53
2023-04-28T12:27:40.330Z,100128.34
2023-04-28T12:31:50.262Z,100130.94
2023-04-28T12:35:54.794Z,100130.03
2023-04-28T12:39:56.357Z,100117.09
2023-04-28T12:43:58.111Z,100127.47
2023-04-28T12:47:59.753Z,100126.59
2023-04-28T12:52:01.928Z,100119.69
2023-04-28T12:56:03.600Z,100115.41
2023-04-28T13:00:06.170Z,100108.28
2023-04-28T13:04:09.445Z,100105.22
2023-04-28T13:08:12.406Z,100093.56
2023-04-28T13:12:13.989Z,100090.16
2023-04-28T13:16:15.676Z,100085.34
2023-04-28T13:20:17.304Z,100089.09
2023-04-28T13:24:18.891Z,100096.16
2023-04-28T13:58:25.901Z,100015.69
2023-04-28T14:02:27.665Z,100018.38
2023-04-28T14:06:29.478Z,100009.84
2023-04-28T14:10:31.217Z,100027.47
2023-04-28T14:14:32.843Z,100021.75
2023-04-28T14:18:34.504Z,100022.91
2023-04-28T14:22:36.234Z,100022.19
2023-04-28T14:26:37.950Z,100011.06
2023-04-28T14:30:39.513Z,100019.03
2023-04-28T14:34:41.143Z,100006.16
2023-04-28T14:38:42.767Z,100021.00
2023-04-28T14:42:45.146Z,100027.13
2023-04-28T14:46:47.016Z,100029.75
2023-04-28T14:50:48.951Z,100039.31
2023-04-28T14:54:50.875Z,100022.91
2023-04-28T14:58:52.640Z,100068.75
2023-04-28T15:02:54.304Z,100066.13
2023-04-28T15:06:56.807Z,100058.38
2023-04-28T15:10:58.380Z,100071.13
2023-04-28T15:15:00.250Z,100075.97
2023-04-28T15:19:01.887Z,100078.19
2023-04-28T15:23:03.554Z,100069.59
2023-04-28T15:27:05.179Z,100050.75
2023-04-28T15:31:07.096Z,100039.63
2023-04-28T15:35:09.121Z,100040.56
2023-04-28T15:39:10.754Z,100034.66
2023-04-28T15:43:13.304Z,100038.19
2023-04-28T15:47:14.845Z,100033.03
2023-04-28T15:51:16.452Z,100033.06
2023-04-28T15:55:20.986Z,100026.28
2023-04-28T15:59:22.761Z,100041.00
2023-04-28T16:03:24.514Z,100033.25
2023-04-28T16:07:26.275Z,100038.50
2023-04-28T16:11:29.693Z,100040.22
2023-04-28T16:15:31.456Z,100025.53
2023-04-28T16:19:33.581Z,100010.78
2023-04-28T16:23:35.359Z,100012.41
2023-04-28T16:27:38.508Z,100002.81
2023-04-28T16:31:40.128Z,99984.56
2023-04-28T16:35:41.760Z,99983.69
2023-04-28T16:39:43.407Z,99977.59
2023-04-28T16:43:44.911Z,99979.22
2023-04-28T16:47:46.739Z,99994.84
2023-04-28T16:52:06.465Z,99992.38
2023-04-28T16:56:10.438Z,99999.25
2023-04-28T17:00:13.771Z,99999.41
2023-04-28T17:04:15.712Z,100005.56
2023-04-28T17:08:17.356Z,99996.13
2023-04-28T17:12:20.770Z,100007.34
2023-04-28T17:16:22.554Z,99997.00
2023-04-28T17:20:24.366Z,99991.75
2023-04-28T17:24:26.042Z,99998.69
2023-04-28T17:28:27.996Z,100009.06
2023-04-28T17:32:31.066Z,100011.69
2023-04-28T17:36:33.644Z,100010.00
2023-04-28T17:40:35.317Z,100007.38
2023-04-28T17:44:36.894Z,99997.91
2023-04-28T17:48:38.523Z,99998.78
2023-04-28T17:52:43.433Z,100000.53
2023-04-28T17:56:45.572Z,100019.47
2023-04-28T18:00:47.094Z,100012.56
2023-04-28T18:04:49.001Z,100014.28
2023-04-28T18:08:50.846Z,100022.88
2023-04-28T18:12:53.655Z,100022.84
2023-04-28T18:16:55.469Z,100026.28
2023-04-28T18:20:58.724Z,100032.28
2023-04-28T18:25:00.453Z,100037.41
2023-04-28T18:29:02.080Z,100040.78
2023-04-28T18:33:07.139Z,100041.63
2023-04-28T18:37:09.396Z,100042.41
2023-04-28T18:41:16.464Z,100050.16
2023-04-28T18:45:19.011Z,100056.13
2023-04-28T18:49:20.652Z,100057.84
2023-04-28T18:53:22.214Z,100058.69
2023-04-28T18:57:23.995Z,100061.25
2023-04-28T19:01:27.213Z,100061.19
2023-04-28T19:05:29.707Z,100062.06
2023-04-28T19:09:31.387Z,100064.59
2023-04-28T19:13:34.327Z,100067.13
2023-04-28T19:17:35.910Z,100087.78
2023-04-28T19:21:42.321Z,100092.03
2023-04-28T19:25:44.194Z,100098.84
2023-04-28T19:29:45.786Z,100101.44
2023-04-28T19:33:47.316Z,100097.06
2023-04-28T19:37:49.851Z,100106.53
2023-04-28T19:41:52.290Z,100107.38
2023-04-28T19:45:53.994Z,100114.22
2023-04-28T19:49:56.406Z,100121.91
2023-04-28T19:53:58.101Z,100130.47
2023-04-28T19:58:01.086Z,100142.50
2023-04-28T20:02:02.831Z,100141.56
2023-04-28T20:06:04.492Z,100138.13
2023-04-28T20:10:06.616Z,100142.41
2023-04-28T20:14:08.657Z,100147.50
2023-04-28T20:18:10.508Z,100133.72
2023-04-28T20:22:12.055Z,100137.09
2023-04-28T20:26:15.183Z,100135.31
2023-04-28T20:30:16.765Z,100137.84
2023-04-28T20:34:20.789Z,100136.84
2023-04-28T20:38:22.565Z,100141.19
2023-04-28T20:42:25.026Z,100132.59
2023-04-28T20:46:27.137Z,100126.53
2023-04-28T20:50:33.189Z,100123.91
2023-04-28T20:54:36.131Z,100127.31
2023-04-28T20:58:38.196Z,100127.31
2023-04-28T21:02:40.007Z,100132.50
2023-04-28T21:06:41.715Z,100129.91
2023-04-28T21:10:43.478Z,100148.81
2023-04-28T21:14:45.115Z,100141.03
2023-04-28T21:18:47.301Z,100137.53
2023-04-28T21:22:49.565Z,100146.06
2023-04-28T21:26:51.128Z,100141.69
2023-04-28T21:30:53.029Z,100140.78
2023-04-28T21:34:54.634Z,100149.34
2023-04-28T21:38:56.820Z,100145.84
2023-04-28T21:42:58.349Z,100166.41
2023-04-28T21:47:00.049Z,100176.63
2023-04-28T21:51:01.685Z,100183.38
2023-04-28T21:55:03.330Z,100176.44
2023-04-28T21:59:04.949Z,100179.88
2023-04-28T22:03:06.761Z,100181.56
2023-04-28T22:07:08.555Z,100177.22
2023-04-28T22:11:10.214Z,100185.81
2023-04-28T22:15:11.850Z,100185.75
2023-04-28T22:19:13.459Z,100189.97
2023-04-28T22:23:15.132Z,100188.13
2023-04-28T22:27:16.719Z,100194.97
2023-04-28T22:31:18.561Z,100200.97
2023-04-28T22:35:20.243Z,100204.38
2023-04-28T22:39:24.795Z,100212.03
2023-04-28T22:43:27.641Z,100210.22
2023-04-28T22:47:29.333Z,100208.44
2023-04-28T22:51:31.535Z,100207.59
2023-04-28T22:55:33.097Z,100211.03
2023-04-28T22:59:34.614Z,100217.84
2023-04-28T23:03:38.361Z,100219.47
2023-04-28T23:07:40.402Z,100214.28
2023-04-28T23:11:41.988Z,100217.66
2023-04-28T23:15:43.656Z,100217.56
2023-04-28T23:19:45.403Z,100218.31
2023-04-28T23:23:47.020Z,100212.25
2023-04-28T23:27:48.578Z,100223.34
2023-04-28T23:31:54.489Z,100233.53
2023-04-28T23:35:56.085Z,100223.13
2023-04-28T23:39:57.675Z,100220.56
2023-04-28T23:43:59.166Z,100217.94
2023-04-28T23:48:00.937Z,100220.47
2023-04-28T23:52:02.685Z,100216.22
2023-04-28T23:56:04.428Z,100220.50
